Time;durP1;ratioP1;P1;durP2;ratioP2;P2;SDS_P1;SDS_P2;PMS_P1;PMS_P2;Temp;Humidity;BMP_temperature;BMP_pressure;BME280_temperature;BME280_humidity;BME280_pressure;Samples;Min_cycle;Max_cycle;Signal;HPM_P1;HPM_P2
2021/07/23 00:01:10;;;;;;;9.23;5.90;;;15.30;99.90;;;;;;4376816;32;20191;-60
2021/07/23 00:03:38;;;;;;;8.77;5.60;;;15.30;99.90;;;;;;4383609;32;20223;-60
2021/07/23 00:06:04;;;;;;;8.10;5.23;;;15.30;99.90;;;;;;4389910;32;20172;-61
2021/07/23 00:08:32;;;;;;;7.17;5.93;;;15.20;99.90;;;;;;4383791;32;20172;-60
2021/07/23 00:10:59;;;;;;;9.33;6.07;;;15.30;99.90;;;;;;4375639;32;20160;-60
2021/07/23 00:13:26;;;;;;;9.20;6.03;;;15.20;99.90;;;;;;4374443;32;20605;-61
2021/07/23 00:15:54;;;;;;;10.33;7.13;;;15.10;99.90;;;;;;4389406;32;20667;-61
2021/07/23 00:18:21;;;;;;;11.00;6.40;;;15.10;99.90;;;;;;4377152;32;20183;-61
2021/07/23 00:20:48;;;;;;;10.00;6.20;;;15.10;99.90;;;;;;4377567;32;20148;-61
2021/07/23 00:23:14;;;;;;;10.30;6.77;;;15.10;99.90;;;;;;4377648;32;20200;-61
2021/07/23 00:25:43;;;;;;;9.60;6.77;;;15.00;99.90;;;;;;4378163;32;20211;-61
2021/07/23 00:28:09;;;;;;;7.97;5.80;;;15.00;99.90;;;;;;4362708;33;20167;-61
2021/07/23 00:30:36;;;;;;;13.53;5.90;;;15.00;99.90;;;;;;4363161;32;20531;-59
2021/07/23 00:33:04;;;;;;;9.53;5.43;;;14.90;99.90;;;;;;4374736;32;20289;-60
2021/07/23 00:35:30;;;;;;;10.43;6.43;;;14.90;99.90;;;;;;4376826;32;20191;-61
2021/07/23 00:37:57;;;;;;;8.37;6.17;;;14.90;99.90;;;;;;4377886;32;20195;-61
2021/07/23 00:40:25;;;;;;;9.57;5.80;;;14.90;99.90;;;;;;4378291;32;20610;-60
2021/07/23 00:42:55;;;;;;;9.60;6.43;;;14.90;99.90;;;;;;4383908;32;20212;-61
2021/07/23 00:45:22;;;;;;;12.33;6.90;;;14.80;99.90;;;;;;4393621;32;20160;-60
2021/07/23 00:47:52;;;;;;;9.77;6.63;;;14.80;99.90;;;;;;4390986;32;20191;-61
2021/07/23 00:50:19;;;;;;;8.30;5.80;;;14.80;99.90;;;;;;4392593;32;20164;-60
2021/07/23 00:52:47;;;;;;;9.43;5.90;;;14.80;99.90;;;;;;4378667;32;20205;-60
2021/07/23 00:55:15;;;;;;;8.37;6.33;;;14.80;99.90;;;;;;4377033;32;20203;-60
2021/07/23 00:57:44;;;;;;;6.80;5.77;;;14.80;99.90;;;;;;4393660;32;20208;-61
2021/07/23 01:00:13;;;;;;;8.47;6.20;;;14.80;99.90;;;;;;4390946;32;20190;-61
2021/07/23 01:02:41;;;;;;;9.23;6.87;;;14.80;99.90;;;;;;4380107;32;20204;-61
2021/07/23 01:05:10;;;;;;;8.97;6.67;;;14.70;99.90;;;;;;4386891;32;20632;-61
2021/07/23 01:07:37;;;;;;;11.60;6.50;;;14.80;99.90;;;;;;4390279;32;20454;-61
2021/07/23 01:10:04;;;;;;;9.57;6.10;;;14.70;99.90;;;;;;4387421;32;20254;-61
2021/07/23 01:12:32;;;;;;;7.70;6.07;;;14.70;99.90;;;;;;4385580;32;20183;-61
2021/07/23 01:14:59;;;;;;;12.53;6.50;;;14.70;99.90;;;;;;4373782;32;20593;-61
2021/07/23 01:17:28;;;;;;;10.10;6.53;;;14.70;99.90;;;;;;4377075;32;20172;-61
2021/07/23 01:20:04;;;;;;;8.57;6.43;;;14.70;99.90;;;;;;4386110;32;20223;-61
2021/07/23 01:22:32;;;;;;;11.47;7.40;;;14.70;99.90;;;;;;4378296;32;20291;-61
2021/07/23 01:25:01;;;;;;;8.37;6.33;;;14.60;99.90;;;;;;4371365;32;20173;-61
2021/07/23 01:27:33;;;;;;;10.43;7.30;;;14.60;99.90;;;;;;4391731;32;20187;-61
2021/07/23 01:30:07;;;;;;;8.90;6.53;;;14.70;99.90;;;;;;4391786;32;20600;-61
2021/07/23 01:32:34;;;;;;;12.07;7.10;;;14.60;99.90;;;;;;4382268;32;20246;-61
2021/07/23 01:35:01;;;;;;;8.80;6.57;;;14.60;99.90;;;;;;4380851;32;20224;-60
2021/07/23 01:37:28;;;;;;;9.50;6.43;;;14.50;99.90;;;;;;4385078;32;20495;-60
2021/07/23 01:39:56;;;;;;;10.40;6.23;;;14.50;99.90;;;;;;4386030;32;20673;-61
2021/07/23 01:42:27;;;;;;;9.93;6.57;;;14.40;99.90;;;;;;4380482;32;20244;-61
2021/07/23 01:44:54;;;;;;;8.67;6.80;;;14.40;99.90;;;;;;4380249;32;20616;-61
2021/07/23 01:47:20;;;;;;;9.00;6.00;;;14.40;99.90;;;;;;4381539;32;20225;-60
2021/07/23 01:49:47;;;;;;;8.40;6.43;;;14.30;99.90;;;;;;4376485;32;20182;-60
2021/07/23 01:52:14;;;;;;;10.73;6.93;;;14.40;99.90;;;;;;4376896;32;20199;-61
2021/07/23 01:54:41;;;;;;;10.03;7.00;;;14.30;99.90;;;;;;4379854;32;20175;-61
2021/07/23 01:57:08;;;;;;;12.00;7.17;;;14.30;99.90;;;;;;4391534;32;20164;-61
2021/07/23 01:59:37;;;;;;;8.33;7.00;;;14.30;99.90;;;;;;4384237;32;20160;-61
2021/07/23 02:02:04;;;;;;;12.30;7.97;;;14.30;99.90;;;;;;4391339;32;20202;-61
2021/07/23 02:04:31;;;;;;;8.93;7.03;;;14.30;99.90;;;;;;4381978;32;20212;-61
2021/07/23 02:06:58;;;;;;;10.37;7.67;;;14.30;99.90;;;;;;4385580;32;20193;-62
2021/07/23 02:09:25;;;;;;;10.10;7.67;;;14.30;99.90;;;;;;4390975;32;20217;-61
2021/07/23 02:11:52;;;;;;;9.23;6.73;;;14.20;99.90;;;;;;4367487;32;20163;-61
2021/07/23 02:14:18;;;;;;;10.40;7.37;;;14.10;99.90;;;;;;4378344;32;20168;-61
2021/07/23 02:16:47;;;;;;;12.30;8.07;;;14.10;99.90;;;;;;4375877;32;20175;-61
2021/07/23 02:19:14;;;;;;;12.07;7.23;;;14.10;99.90;;;;;;4376761;32;20176;-61
2021/07/23 02:21:41;;;;;;;11.03;6.90;;;14.10;99.90;;;;;;4376201;32;20182;-61
2021/07/23 02:24:08;;;;;;;11.57;7.27;;;14.00;99.90;;;;;;4379881;32;20219;-61
2021/07/23 02:26:34;;;;;;;10.93;8.00;;;14.00;99.90;;;;;;4373691;32;20604;-61
2021/07/23 02:29:01;;;;;;;12.27;7.63;;;14.00;99.90;;;;;;4376051;32;20256;-61
2021/07/23 02:31:28;;;;;;;11.20;7.93;;;14.00;99.90;;;;;;4379761;32;20615;-61
2021/07/23 02:33:58;;;;;;;13.13;8.40;;;14.00;99.90;;;;;;4367481;32;20164;-61
2021/07/23 02:36:25;;;;;;;10.70;7.97;;;14.00;99.90;;;;;;4373444;32;20183;-61
2021/07/23 02:38:52;;;;;;;11.03;8.60;;;14.00;99.90;;;;;;4375606;32;20632;-61
2021/07/23 02:41:19;;;;;;;12.63;8.47;;;13.90;99.90;;;;;;4384178;32;20165;-62
2021/07/23 02:43:49;;;;;;;11.60;8.17;;;13.90;99.90;;;;;;4386631;32;20168;-61
2021/07/23 02:46:16;;;;;;;11.77;8.40;;;13.90;99.90;;;;;;4365056;32;20194;-61
2021/07/23 02:48:43;;;;;;;9.00;7.13;;;13.90;99.90;;;;;;4367573;32;20175;-61
2021/07/23 02:51:11;;;;;;;12.07;7.63;;;13.90;99.90;;;;;;4374013;32;20177;-61
2021/07/23 02:53:38;;;;;;;11.03;8.13;;;13.90;99.90;;;;;;4375902;32;20153;-61
2021/07/23 02:56:08;;;;;;;14.13;8.37;;;13.90;99.90;;;;;;4377375;32;20210;-61
2021/07/23 02:58:38;;;;;;;11.13;7.77;;;13.90;99.90;;;;;;4376183;32;20219;-61
2021/07/23 03:01:05;;;;;;;10.13;7.00;;;13.90;99.90;;;;;;4378532;32;20219;-61
2021/07/23 03:03:32;;;;;;;11.60;7.60;;;13.90;99.90;;;;;;4364598;32;20370;-61
2021/07/23 03:05:59;;;;;;;14.57;8.80;;;14.00;99.90;;;;;;4363132;32;20161;-61
2021/07/23 03:08:29;;;;;;;12.50;8.03;;;14.10;99.90;;;;;;4371664;32;20164;-61
2021/07/23 03:10:58;;;;;;;10.97;6.83;;;14.10;99.90;;;;;;4376220;32;20220;-61
2021/07/23 03:13:25;;;;;;;12.73;7.53;;;14.10;99.90;;;;;;4375501;32;20164;-61
2021/07/23 03:15:52;;;;;;;10.30;6.97;;;14.20;99.90;;;;;;4374335;32;20217;-61
2021/07/23 03:18:19;;;;;;;8.83;7.00;;;14.30;99.90;;;;;;4375912;32;20635;-61
2021/07/23 03:20:46;;;;;;;10.87;7.60;;;14.50;99.90;;;;;;4375425;32;20223;-61
2021/07/23 03:23:13;;;;;;;11.00;7.67;;;14.50;99.90;;;;;;4376476;32;20211;-61
2021/07/23 03:25:41;;;;;;;11.77;7.47;;;14.60;99.90;;;;;;4375951;32;20194;-61
2021/07/23 03:28:08;;;;;;;9.03;6.53;;;14.80;99.90;;;;;;4377373;32;20460;-61
2021/07/23 03:30:35;;;;;;;11.47;7.80;;;14.70;99.90;;;;;;4375899;32;20203;-61
2021/07/23 03:33:02;;;;;;;9.47;7.43;;;14.80;99.90;;;;;;4360343;32;20177;-61
2021/07/23 03:35:28;;;;;;;10.33;7.17;;;14.90;99.90;;;;;;4375432;32;20180;-61
2021/07/23 03:37:58;;;;;;;10.37;7.47;;;15.00;99.90;;;;;;4375243;32;20156;-61
2021/07/23 03:40:25;;;;;;;12.67;8.33;;;15.10;99.90;;;;;;4374966;32;20220;-62
2021/07/23 03:42:54;;;;;;;12.13;7.17;;;15.20;99.90;;;;;;4374987;32;20584;-59
2021/07/23 03:45:21;;;;;;;11.13;7.57;;;15.20;99.90;;;;;;4385550;32;20630;-60
2021/07/23 03:47:48;;;;;;;10.70;6.97;;;15.20;99.90;;;;;;4378279;32;20195;-59
2021/07/23 03:50:14;;;;;;;10.43;7.27;;;15.20;99.90;;;;;;4363450;32;20226;-60
2021/07/23 03:52:43;;;;;;;11.03;7.50;;;15.30;99.90;;;;;;4364995;32;20184;-59
2021/07/23 03:55:12;;;;;;;11.43;6.97;;;15.40;99.90;;;;;;4379157;32;20194;-59
2021/07/23 03:57:39;;;;;;;9.10;6.30;;;15.40;99.90;;;;;;4383957;32;20156;-59
2021/07/23 04:00:09;;;;;;;8.93;6.90;;;15.40;99.90;;;;;;4360155;32;20557;-59
2021/07/23 04:02:36;;;;;;;9.13;7.13;;;15.40;99.90;;;;;;4356451;32;20183;-59
2021/07/23 04:05:03;;;;;;;9.90;7.20;;;15.50;99.90;;;;;;4362129;32;20266;-59
2021/07/23 04:07:30;;;;;;;11.10;7.50;;;15.50;99.90;;;;;;4360833;33;20157;-61
2021/07/23 04:09:58;;;;;;;8.77;6.20;;;15.50;99.90;;;;;;4363509;32;20156;-62
2021/07/23 04:12:24;;;;;;;9.83;7.47;;;15.60;99.90;;;;;;4357776;32;20260;-59
2021/07/23 04:14:51;;;;;;;12.40;6.90;;;15.70;99.90;;;;;;4349604;33;20260;-60
2021/07/23 04:17:20;;;;;;;8.27;6.73;;;15.80;99.90;;;;;;4347439;33;20206;-59
2021/07/23 04:19:47;;;;;;;8.57;7.67;;;15.70;99.90;;;;;;4349195;33;20534;-60
2021/07/23 04:22:13;;;;;;;9.60;7.30;;;15.80;99.90;;;;;;4351551;33;20514;-61
2021/07/23 04:24:40;;;;;;;10.33;6.87;;;15.80;99.90;;;;;;4363946;32;20161;-60
2021/07/23 04:27:07;;;;;;;8.67;6.00;;;15.90;99.90;;;;;;4361021;32;20231;-60
2021/07/23 04:29:34;;;;;;;8.57;6.60;;;16.00;99.90;;;;;;4362419;33;20164;-60
2021/07/23 04:32:01;;;;;;;12.27;6.57;;;16.00;99.90;;;;;;4351091;33;20196;-60
2021/07/23 04:34:30;;;;;;;8.20;6.10;;;16.00;99.90;;;;;;4347905;33;20168;-60
2021/07/23 04:37:00;;;;;;;9.83;6.17;;;16.00;99.90;;;;;;4352134;32;20152;-60
2021/07/23 04:39:27;;;;;;;8.10;6.57;;;16.00;99.90;;;;;;4364100;32;20165;-60
2021/07/23 04:41:54;;;;;;;10.73;6.73;;;16.00;99.90;;;;;;4361502;32;20228;-59
2021/07/23 04:44:21;;;;;;;8.73;6.40;;;16.00;99.90;;;;;;4362516;33;20165;-59
2021/07/23 04:46:48;;;;;;;11.70;7.17;;;16.10;99.90;;;;;;4357247;32;20176;-58
2021/07/23 04:49:15;;;;;;;8.90;6.77;;;16.10;99.90;;;;;;4351495;33;20182;-61
2021/07/23 04:51:43;;;;;;;7.43;6.10;;;16.20;99.90;;;;;;4354686;33;20179;-61
2021/07/23 04:54:10;;;;;;;8.37;6.90;;;16.20;99.90;;;;;;4347292;33;20149;-60
2021/07/23 04:56:36;;;;;;;12.03;6.97;;;16.30;99.90;;;;;;4349959;32;20204;-61
2021/07/23 04:59:03;;;;;;;8.63;6.40;;;16.30;99.90;;;;;;4356550;32;20187;-61
2021/07/23 05:01:30;;;;;;;10.60;7.03;;;16.30;99.90;;;;;;4368441;32;20198;-60
2021/07/23 05:04:00;;;;;;;11.20;6.87;;;16.30;99.90;;;;;;4378919;32;20178;-60
2021/07/23 05:06:26;;;;;;;13.33;6.93;;;16.30;99.90;;;;;;4377132;32;20207;-61
2021/07/23 05:08:55;;;;;;;8.30;6.30;;;16.20;99.90;;;;;;4365279;32;20209;-60
2021/07/23 05:11:22;;;;;;;9.33;6.53;;;16.30;99.90;;;;;;4390601;32;20168;-60
2021/07/23 05:13:49;;;;;;;10.10;6.17;;;16.30;99.90;;;;;;4392148;32;20170;-60
2021/07/23 05:16:18;;;;;;;9.93;6.27;;;16.30;99.90;;;;;;4392856;32;20236;-61
2021/07/23 05:18:51;;;;;;;7.90;6.67;;;16.30;99.90;;;;;;4364979;32;20318;-60
2021/07/23 05:21:17;;;;;;;8.13;6.97;;;16.50;99.90;;;;;;4365201;32;21084;-60
2021/07/23 05:23:51;;;;;;;9.57;6.57;;;16.60;99.90;;;;;;4358671;32;20301;-60
2021/07/23 05:26:28;;;;;;;7.13;6.30;;;16.60;99.90;;;;;;4359905;32;20318;-60
2021/07/23 05:28:57;;;;;;;7.67;6.33;;;16.60;99.90;;;;;;4359992;32;20277;-60
2021/07/23 05:31:27;;;;;;;11.07;7.20;;;16.70;99.90;;;;;;4362197;32;20219;-59
2021/07/23 05:33:57;;;;;;;9.30;6.40;;;16.70;99.90;;;;;;4363454;32;20152;-60
2021/07/23 05:36:30;;;;;;;7.70;6.30;;;16.80;99.90;;;;;;4360149;32;20596;-58
2021/07/23 05:38:57;;;;;;;10.43;6.67;;;16.80;99.90;;;;;;4361844;32;20207;-59
2021/07/23 05:41:25;;;;;;;9.47;6.83;;;16.80;99.90;;;;;;4359676;32;20223;-59
2021/07/23 05:43:52;;;;;;;9.17;6.30;;;16.90;99.90;;;;;;4370556;32;20177;-59
2021/07/23 05:46:19;;;;;;;10.07;5.90;;;16.90;99.90;;;;;;4371920;32;20217;-59
2021/07/23 05:48:45;;;;;;;6.47;5.63;;;16.90;99.90;;;;;;4374904;32;20176;-59
2021/07/23 05:51:13;;;;;;;8.70;6.53;;;16.90;99.90;;;;;;4366889;32;20226;-59
2021/07/23 05:53:39;;;;;;;8.17;6.80;;;17.00;99.90;;;;;;4374527;32;20610;-60
2021/07/23 05:56:06;;;;;;;8.57;6.50;;;17.00;99.90;;;;;;4373567;32;20193;-59
2021/07/23 05:58:35;;;;;;;8.67;6.67;;;17.10;99.90;;;;;;4369175;32;20208;-60
2021/07/23 06:01:10;;;;;;;8.53;5.93;;;17.20;99.90;;;;;;4375082;32;20184;-59
2021/07/23 06:03:37;;;;;;;6.73;6.07;;;17.30;99.90;;;;;;4373894;32;20198;-60
2021/07/23 06:06:04;;;;;;;6.73;5.77;;;17.40;99.90;;;;;;4375391;32;20503;-60
2021/07/23 06:08:31;;;;;;;8.50;6.10;;;17.40;99.90;;;;;;4375710;32;20160;-60
2021/07/23 06:11:04;;;;;;;8.47;6.53;;;17.50;99.90;;;;;;4376127;32;20152;-60
2021/07/23 06:13:31;;;;;;;8.20;5.73;;;17.60;99.90;;;;;;4377755;32;20183;-60
2021/07/23 06:16:03;;;;;;;8.43;5.70;;;17.70;99.90;;;;;;4375476;32;20164;-61
2021/07/23 06:18:30;;;;;;;7.33;5.77;;;17.70;99.90;;;;;;4378240;32;20160;-60
2021/07/23 06:20:57;;;;;;;8.00;5.67;;;17.70;99.90;;;;;;4369209;32;20207;-60
2021/07/23 06:23:24;;;;;;;9.63;6.63;;;17.70;99.90;;;;;;4373569;32;20195;-60
2021/07/23 06:25:52;;;;;;;6.47;4.97;;;17.70;99.90;;;;;;4370064;32;20173;-60
2021/07/23 06:28:19;;;;;;;10.33;6.40;;;17.70;99.90;;;;;;4374129;32;20191;-60
2021/07/23 06:30:46;;;;;;;6.60;5.60;;;17.80;99.90;;;;;;4375599;32;20250;-60
2021/07/23 06:33:14;;;;;;;9.23;5.40;;;17.80;99.90;;;;;;4372721;32;20176;-60
2021/07/23 06:35:41;;;;;;;7.03;5.47;;;17.80;99.90;;;;;;4374506;32;20603;-60
2021/07/23 06:38:10;;;;;;;7.97;5.97;;;17.90;99.90;;;;;;4374867;32;20263;-60
2021/07/23 06:40:38;;;;;;;10.33;6.90;;;18.00;99.90;;;;;;4374998;32;20259;-60
2021/07/23 06:43:06;;;;;;;7.23;5.23;;;18.10;99.90;;;;;;4374835;32;20220;-60
2021/07/23 06:45:33;;;;;;;8.67;5.70;;;18.20;99.90;;;;;;4373569;32;20172;-60
2021/07/23 06:48:01;;;;;;;8.60;5.83;;;18.40;99.90;;;;;;4374286;32;20253;-59
2021/07/23 06:50:31;;;;;;;6.97;5.53;;;18.50;99.90;;;;;;4373781;32;20258;-59
2021/07/23 06:53:02;;;;;;;7.80;4.93;;;18.60;99.90;;;;;;4374589;32;20207;-60
2021/07/23 06:55:29;;;;;;;6.03;5.43;;;18.60;99.90;;;;;;4373990;32;20168;-61
2021/07/23 06:57:58;;;;;;;8.97;5.33;;;18.70;99.90;;;;;;4374605;32;20730;-60
2021/07/23 07:00:25;;;;;;;6.47;5.80;;;18.80;99.90;;;;;;4374128;32;20196;-61
2021/07/23 07:02:52;;;;;;;6.63;4.87;;;18.90;99.90;;;;;;4373998;32;20191;-60
2021/07/23 07:05:19;;;;;;;6.07;5.03;;;18.90;99.90;;;;;;4373788;32;20230;-60
2021/07/23 07:07:47;;;;;;;6.17;5.20;;;19.20;99.90;;;;;;4374090;32;20164;-60
2021/07/23 07:10:17;;;;;;;6.83;5.27;;;19.20;99.90;;;;;;4371809;32;20190;-60
2021/07/23 07:12:44;;;;;;;7.83;5.20;;;19.30;99.90;;;;;;4372971;32;20235;-62
2021/07/23 07:15:11;;;;;;;9.33;5.77;;;19.50;99.90;;;;;;4374367;32;20584;-63
2021/07/23 07:17:39;;;;;;;6.00;4.37;;;19.50;99.90;;;;;;4374784;32;20187;-62
2021/07/23 07:20:07;;;;;;;9.13;4.90;;;19.60;99.90;;;;;;4373125;32;20225;-64
2021/07/23 07:22:33;;;;;;;7.90;5.60;;;19.70;99.90;;;;;;4360314;33;20153;-62
2021/07/23 07:25:02;;;;;;;7.47;5.50;;;19.80;99.90;;;;;;4360365;33;20156;-63
2021/07/23 07:27:29;;;;;;;6.77;5.10;;;19.60;99.90;;;;;;4361460;32;20160;-63
2021/07/23 07:29:56;;;;;;;7.87;5.03;;;19.60;99.90;;;;;;4374755;32;20171;-63
2021/07/23 07:32:23;;;;;;;8.00;5.00;;;19.60;99.90;;;;;;4361581;32;20164;-63
2021/07/23 07:34:49;;;;;;;6.27;4.50;;;19.60;99.90;;;;;;4360142;33;20166;-63
2021/07/23 07:37:16;;;;;;;7.30;4.53;;;19.70;99.90;;;;;;4360175;33;20175;-63
2021/07/23 07:39:43;;;;;;;7.40;4.60;;;19.80;99.90;;;;;;4360213;33;20188;-63
2021/07/23 07:42:11;;;;;;;8.73;5.07;;;19.90;99.90;;;;;;4362936;32;20179;-65
2021/07/23 07:44:38;;;;;;;9.73;5.33;;;20.00;99.90;;;;;;4373735;32;20547;-64
2021/07/23 07:47:05;;;;;;;6.80;4.80;;;20.20;99.90;;;;;;4376064;32;20153;-63
2021/07/23 07:49:32;;;;;;;6.87;4.97;;;20.20;99.90;;;;;;4374824;32;20190;-65
2021/07/23 07:51:58;;;;;;;5.47;4.57;;;20.30;99.90;;;;;;4365060;32;20200;-63
2021/07/23 07:54:25;;;;;;;8.67;5.80;;;20.30;99.90;;;;;;4368773;32;20251;-64
2021/07/23 07:56:52;;;;;;;9.73;5.73;;;20.20;99.90;;;;;;4374686;32;20204;-64
2021/07/23 07:59:20;;;;;;;8.67;5.00;;;20.00;99.90;;;;;;4374354;32;20177;-61
2021/07/23 08:01:47;;;;;;;5.40;4.47;;;20.00;99.90;;;;;;4364026;32;20191;-61
2021/07/23 08:04:14;;;;;;;8.53;4.93;;;20.20;99.90;;;;;;4360165;33;20204;-61
2021/07/23 08:06:42;;;;;;;8.57;4.63;;;20.50;99.90;;;;;;4360119;33;20175;-61
2021/07/23 08:09:11;;;;;;;7.80;5.30;;;20.60;99.90;;;;;;4359843;33;20973;-61
2021/07/23 08:11:38;;;;;;;7.17;4.73;;;20.60;99.90;;;;;;4356117;32;20637;-61
2021/07/23 08:14:09;;;;;;;5.80;4.77;;;20.70;99.90;;;;;;4345338;33;20216;-61
2021/07/23 08:16:37;;;;;;;7.97;4.90;;;20.70;99.90;;;;;;4346565;33;20171;-61
2021/07/23 08:19:04;;;;;;;8.17;4.53;;;20.70;99.90;;;;;;4359565;33;20185;-61
2021/07/23 08:21:33;;;;;;;5.47;4.60;;;20.80;99.90;;;;;;4359048;32;20164;-61
2021/07/23 08:24:02;;;;;;;8.20;5.20;;;20.80;99.90;;;;;;4345245;33;20180;-61
2021/07/23 08:26:28;;;;;;;5.90;4.30;;;21.00;99.90;;;;;;4354656;33;20270;-61
2021/07/23 08:28:55;;;;;;;5.73;4.80;;;21.10;99.90;;;;;;4361220;32;20593;-60
2021/07/23 08:31:22;;;;;;;9.03;4.57;;;21.20;99.90;;;;;;4361587;32;20164;-61
2021/07/23 08:33:50;;;;;;;6.83;5.03;;;21.30;99.90;;;;;;4349907;32;20188;-61
2021/07/23 08:36:18;;;;;;;7.03;4.63;;;21.50;99.90;;;;;;4353059;33;20215;-61
2021/07/23 08:38:44;;;;;;;8.43;5.57;;;21.70;99.90;;;;;;4362579;33;20161;-61
2021/07/23 08:41:12;;;;;;;7.63;4.73;;;21.90;99.90;;;;;;4362828;32;20183;-61
2021/07/23 08:43:39;;;;;;;6.80;4.23;;;21.80;99.90;;;;;;4350105;32;20218;-61
2021/07/23 08:46:08;;;;;;;9.93;5.83;;;21.90;99.90;;;;;;4348823;33;20502;-62
2021/07/23 08:48:34;;;;;;;7.27;4.63;;;21.90;99.10;;;;;;4347708;33;20179;-61
2021/07/23 08:51:03;;;;;;;5.47;4.53;;;22.10;99.70;;;;;;4348339;33;20181;-61
2021/07/23 08:53:29;;;;;;;7.60;5.03;;;22.20;98.60;;;;;;4350518;32;20177;-61
2021/07/23 08:55:58;;;;;;;6.13;4.90;;;22.00;98.70;;;;;;4348868;33;20165;-61
2021/07/23 08:58:25;;;;;;;5.83;4.37;;;21.80;98.60;;;;;;4351908;33;20236;-61
2021/07/23 09:00:58;;;;;;;8.17;4.50;;;21.60;99.10;;;;;;4362368;32;20212;-61
2021/07/23 09:03:28;;;;;;;8.40;4.77;;;21.50;99.60;;;;;;4369488;32;20184;-61
2021/07/23 09:05:56;;;;;;;5.93;4.13;;;21.40;99.90;;;;;;4376252;32;20221;-61
2021/07/23 09:08:25;;;;;;;6.03;4.50;;;21.20;99.60;;;;;;4376016;32;20152;-61
2021/07/23 09:11:03;;;;;;;6.23;4.13;;;21.20;99.90;;;;;;4377541;32;20160;-61
2021/07/23 09:13:31;;;;;;;6.77;4.93;;;21.30;99.80;;;;;;4374110;32;20184;-62
2021/07/23 09:15:58;;;;;;;6.50;4.80;;;21.40;99.90;;;;;;4375991;32;20156;-62
2021/07/23 09:18:28;;;;;;;7.47;4.83;;;21.60;99.80;;;;;;4373243;32;20225;-62
2021/07/23 09:20:57;;;;;;;5.57;4.10;;;21.60;98.90;;;;;;4376580;32;20220;-61
2021/07/23 09:23:30;;;;;;;6.63;4.17;;;21.60;99.50;;;;;;4375730;32;20230;-61
2021/07/23 09:25:59;;;;;;;8.87;4.87;;;21.50;99.20;;;;;;4377258;32;20168;-62
2021/07/23 09:28:31;;;;;;;10.47;5.33;;;21.60;99.40;;;;;;4376444;32;20283;-61
2021/07/23 09:30:59;;;;;;;11.87;4.90;;;21.70;99.10;;;;;;4376203;32;20228;-61
2021/07/23 09:33:28;;;;;;;7.97;6.03;;;21.70;99.40;;;;;;4376474;32;20473;-63
2021/07/23 09:35:56;;;;;;;6.87;5.33;;;21.70;98.70;;;;;;4376538;32;20215;-61
2021/07/23 09:38:24;;;;;;;10.90;5.53;;;21.30;99.30;;;;;;4374604;32;20168;-62
2021/07/23 09:40:53;;;;;;;8.33;5.00;;;21.10;99.60;;;;;;4377295;32;20172;-61
2021/07/23 09:43:31;;;;;;;10.17;6.03;;;21.00;99.90;;;;;;4375887;32;20156;-61
2021/07/23 09:46:24;;;;;;;8.63;5.40;;;21.00;99.90;;;;;;4376001;32;20168;-60
2021/07/23 09:48:51;;;;;;;9.80;6.37;;;21.20;99.90;;;;;;4375482;32;20531;-61
2021/07/23 09:51:19;;;;;;;8.60;5.83;;;21.40;99.90;;;;;;4376527;32;20206;-61
2021/07/23 09:53:46;;;;;;;8.20;4.93;;;21.50;99.30;;;;;;4374627;32;20176;-61
2021/07/23 09:56:14;;;;;;;10.07;5.57;;;21.90;99.60;;;;;;4361785;32;20165;-62
2021/07/23 09:58:44;;;;;;;11.10;5.90;;;22.30;99.10;;;;;;4371032;32;20164;-61
2021/07/23 10:01:14;;;;;;;7.00;5.03;;;22.60;98.50;;;;;;4365395;32;20207;-62
2021/07/23 10:03:44;;;;;;;9.40;6.60;;;22.50;98.10;;;;;;4361364;33;20200;-62
2021/07/23 10:06:13;;;;;;;7.70;5.47;;;22.10;98.20;;;;;;4360961;33;20157;-61
2021/07/23 10:08:41;;;;;;;8.37;6.37;;;21.90;99.10;;;;;;4361060;33;20157;-62
2021/07/23 10:11:11;;;;;;;9.23;6.33;;;21.80;98.90;;;;;;4356354;32;20176;-63
2021/07/23 10:13:41;;;;;;;8.77;5.83;;;21.90;98.90;;;;;;4346507;33;20152;-61
2021/07/23 10:16:10;;;;;;;14.37;6.80;;;22.00;98.80;;;;;;4346418;33;20164;-61
2021/07/23 10:18:43;;;;;;;9.00;6.13;;;22.10;98.40;;;;;;4346841;33;20161;-61
2021/07/23 10:21:10;;;;;;;7.83;5.27;;;22.10;98.30;;;;;;4349527;32;20217;-60
2021/07/23 10:23:38;;;;;;;9.70;5.70;;;22.00;98.30;;;;;;4346767;33;20160;-60
2021/07/23 10:26:06;;;;;;;11.20;5.73;;;21.90;98.40;;;;;;4360598;32;20524;-60
2021/07/23 10:28:54;;;;;;;9.07;6.27;;;21.80;98.50;;;;;;4361872;32;20160;-61
2021/07/23 10:31:54;;;;;;;6.67;5.40;;;21.70;98.40;;;;;;4357708;32;20248;-61
2021/07/23 10:34:32;;;;;;;8.07;5.27;;;21.80;98.90;;;;;;4285592;33;20267;-61
2021/07/23 10:37:02;;;;;;;9.30;5.80;;;22.00;99.00;;;;;;4298748;33;20633;-61
2021/07/23 10:39:30;;;;;;;10.00;5.00;;;22.00;98.00;;;;;;4300109;33;20232;-60
2021/07/23 10:42:34;;;;;;;7.37;6.00;;;21.90;98.70;;;;;;4295279;33;20162;-60
2021/07/23 10:45:04;;;;;;;8.90;5.40;;;21.70;98.80;;;;;;4299405;33;20189;-60
2021/07/23 10:47:42;;;;;;;8.07;5.17;;;21.70;98.80;;;;;;4299853;33;20226;-60
2021/07/23 10:50:35;;;;;;;7.97;5.87;;;21.60;98.90;;;;;;4299602;33;20212;-60
2021/07/23 10:53:34;;;;;;;9.40;5.50;;;21.50;99.00;;;;;;4288762;33;20595;-60
2021/07/23 10:56:01;;;;;;;8.40;4.77;;;21.50;98.80;;;;;;4285546;33;20158;-60
2021/07/23 10:58:33;;;;;;;8.77;5.63;;;21.50;98.60;;;;;;4290335;33;20173;-60
2021/07/23 11:01:02;;;;;;;8.17;5.67;;;21.50;98.70;;;;;;4307698;33;20166;-61
2021/07/23 11:03:48;;;;;;;7.20;4.93;;;21.60;98.50;;;;;;4302734;33;20331;-61
2021/07/23 11:06:18;;;;;;;10.00;6.17;;;21.80;98.70;;;;;;4341299;33;20165;-61
2021/07/23 11:08:49;;;;;;;11.67;5.77;;;22.00;98.10;;;;;;4346301;33;20213;-59
2021/07/23 11:11:17;;;;;;;7.77;5.67;;;22.10;98.00;;;;;;4345800;33;20154;-60
2021/07/23 11:13:45;;;;;;;9.47;5.13;;;22.10;97.60;;;;;;4357380;32;20179;-61
2021/07/23 11:16:15;;;;;;;9.30;5.17;;;22.30;97.50;;;;;;4361802;32;20160;-61
2021/07/23 11:18:52;;;;;;;6.70;5.37;;;22.70;97.70;;;;;;4359378;33;20181;-60
2021/07/23 11:21:22;;;;;;;6.93;4.90;;;23.20;97.00;;;;;;4361035;32;20226;-61
2021/07/23 11:23:49;;;;;;;8.23;5.50;;;23.40;95.80;;;;;;4349281;32;20158;-60
2021/07/23 11:26:23;;;;;;;8.13;5.00;;;23.60;95.20;;;;;;4357594;33;20584;-60
2021/07/23 11:28:52;;;;;;;8.23;4.87;;;23.80;94.50;;;;;;4359844;33;20156;-60
2021/07/23 11:31:32;;;;;;;7.73;5.20;;;24.00;94.20;;;;;;4358867;33;20157;-60
2021/07/23 11:34:00;;;;;;;9.23;5.40;;;24.30;93.30;;;;;;4358553;32;20639;-60
2021/07/23 11:36:34;;;;;;;6.45;4.25;;;24.50;92.30;;;;;;4360403;33;20199;-60
2021/07/23 11:39:02;;;;;;;6.63;5.20;;;24.40;93.00;;;;;;4353026;32;20167;-61
2021/07/23 11:41:29;;;;;;;7.95;4.47;;;24.60;92.80;;;;;;4357629;33;20303;-61
2021/07/23 11:44:06;;;;;;;6.35;4.35;;;24.80;92.70;;;;;;4358892;32;20577;-61
2021/07/23 11:46:34;;;;;;;9.50;4.85;;;25.00;92.70;;;;;;4358736;33;20214;-61
2021/07/23 11:49:01;;;;;;;8.57;5.40;;;25.20;92.30;;;;;;4359070;33;20175;-61
2021/07/23 11:51:38;;;;;;;8.50;5.53;;;25.20;92.10;;;;;;4351765;32;20207;-60
2021/07/23 11:54:06;;;;;;;7.82;4.32;;;25.20;92.20;;;;;;4356644;32;20225;-61
2021/07/23 11:56:33;;;;;;;8.48;5.28;;;25.30;92.80;;;;;;4357701;32;21009;-61
2021/07/23 11:59:03;;;;;;;9.02;5.82;;;25.10;92.40;;;;;;4365585;32;20168;-61
2021/07/23 12:01:36;;;;;;;7.30;5.97;;;24.70;92.30;;;;;;4375643;32;20226;-61
2021/07/23 12:04:03;;;;;;;9.18;5.97;;;24.40;92.20;;;;;;4373824;32;20204;-61
2021/07/23 12:06:30;;;;;;;9.20;5.30;;;24.50;93.40;;;;;;4371445;32;20231;-61
2021/07/23 12:08:58;;;;;;;11.17;6.97;;;24.80;93.30;;;;;;4363592;32;20194;-60
2021/07/23 12:11:25;;;;;;;5.82;5.15;;;25.10;92.10;;;;;;4363809;32;20166;-59
2021/07/23 12:13:53;;;;;;;7.55;5.53;;;25.00;92.80;;;;;;4364899;32;20167;-60
2021/07/23 12:16:35;;;;;;;9.07;5.35;;;25.00;92.50;;;;;;4364007;32;20219;-60
2021/07/23 12:19:09;;;;;;;9.68;6.12;;;25.10;92.40;;;;;;4361232;32;20178;-61
2021/07/23 12:21:37;;;;;;;6.53;5.47;;;25.10;92.70;;;;;;4361097;32;20211;-60
2021/07/23 12:24:06;;;;;;;10.35;7.05;;;25.10;92.30;;;;;;4360645;32;20224;-61
2021/07/23 12:26:47;;;;;;;9.40;6.30;;;25.20;92.30;;;;;;4362777;32;20187;-60
2021/07/23 12:29:14;;;;;;;10.27;7.22;;;25.00;91.50;;;;;;4371449;32;20170;-61
2021/07/23 12:31:42;;;;;;;8.80;5.93;;;24.90;91.90;;;;;;4373178;32;20218;-61
2021/07/23 12:34:11;;;;;;;9.77;6.55;;;24.90;92.50;;;;;;4376448;32;20212;-61
2021/07/23 12:36:47;;;;;;;7.10;5.45;;;24.80;92.10;;;;;;4378304;32;20172;-61
2021/07/23 12:39:14;;;;;;;9.65;6.10;;;24.60;93.10;;;;;;4370928;32;20580;-61
2021/07/23 12:41:41;;;;;;;7.82;5.12;;;24.60;92.30;;;;;;4376713;32;20220;-61
2021/07/23 12:44:10;;;;;;;9.70;6.25;;;24.70;92.90;;;;;;4375188;32;20157;-64
2021/07/23 12:46:38;;;;;;;8.93;6.10;;;24.90;92.50;;;;;;4378518;32;20152;-61
2021/07/23 12:49:11;;;;;;;9.95;6.35;;;24.50;91.60;;;;;;4378929;32;20145;-61
2021/07/23 12:51:38;;;;;;;10.33;6.63;;;24.30;92.60;;;;;;4378330;32;20204;-61